Time;durP1;ratioP1;P1;durP2;ratioP2;P2;SDS_P1;SDS_P2;PMS_P1;PMS_P2;Temp;Humidity;BMP_temperature;BMP_pressure;BME280_temperature;BME280_humidity;BME280_pressure;Samples;Min_cycle;Max_cycle;Signal;HPM_P1;HPM_P2
2023/03/22 00:02:02;;;;;;;;;0.75;0.75;;;;;9.69;78.26;100831.19;5005923;28;10031;-65
2023/03/22 00:04:28;;;;;;;;;0.00;0.00;;;;;9.70;78.14;100824.78;5008275;28;10124;-65
2023/03/22 00:06:55;;;;;;;;;5.25;2.75;;;;;9.72;78.15;100811.13;5006998;28;10115;-65
2023/03/22 00:09:21;;;;;;;;;1.75;0.75;;;;;9.72;77.92;100811.97;5001558;28;10110;-65
2023/03/22 00:11:49;;;;;;;;;0.50;0.25;;;;;9.74;78.39;100804.56;5004057;28;10102;-66
2023/03/22 00:14:19;;;;;;;;;0.25;0.25;;;;;9.76;78.44;100807.88;5006233;28;10164;-66
2023/03/22 00:16:47;;;;;;;;;0.25;0.25;;;;;9.71;78.17;100807.63;5008569;28;10770;-64
2023/03/22 00:19:16;;;;;;;;;0.50;0.50;;;;;9.66;78.21;100804.66;5010773;28;10008;-65
2023/03/22 00:21:42;;;;;;;;;5.25;2.00;;;;;9.66;78.31;100801.97;5001928;28;10199;-66
2023/03/22 00:24:09;;;;;;;;;4.50;3.00;;;;;9.67;78.55;100792.88;5002431;28;10157;-65
2023/03/22 00:26:35;;;;;;;;;1.75;0.75;;;;;9.66;78.01;100796.59;5004693;28;10391;-65
2023/03/22 00:29:02;;;;;;;;;1.00;1.00;;;;;9.70;78.85;100794.38;5007059;28;10761;-65
2023/03/22 00:31:29;;;;;;;;;1.00;1.00;;;;;9.67;78.47;100784.81;4975395;28;10218;-66
2023/03/22 00:33:55;;;;;;;;;1.00;1.00;;;;;9.64;78.31;100787.88;5011757;28;10255;-65
2023/03/22 00:36:22;;;;;;;;;0.00;0.00;;;;;9.66;79.21;100777.78;5010272;28;10741;-65
2023/03/22 00:38:50;;;;;;;;;1.00;1.00;;;;;9.70;78.50;100779.06;5005022;28;10112;-65
2023/03/22 00:41:19;;;;;;;;;1.00;1.00;;;;;9.74;78.62;100787.59;5006892;28;10060;-65
2023/03/22 00:43:47;;;;;;;;;2.00;2.00;;;;;9.73;78.35;100767.13;4993624;28;10104;-65
2023/03/22 00:46:16;;;;;;;;;0.25;0.00;;;;;9.72;78.47;100762.75;5001906;28;10116;-65
2023/03/22 00:48:43;;;;;;;;;0.75;0.75;;;;;9.74;78.68;100764.22;4990892;28;10191;-66
2023/03/22 00:51:10;;;;;;;;;0.00;0.00;;;;;9.76;78.34;100769.41;5009958;28;10286;-68
2023/03/22 00:53:38;;;;;;;;;0.50;0.00;;;;;9.73;78.54;100764.44;4985968;28;10025;-65
2023/03/22 00:56:08;;;;;;;;;2.00;1.75;;;;;9.69;78.58;100769.34;4982687;28;10104;-65
2023/03/22 00:58:43;;;;;;;;;1.00;1.00;;;;;9.72;78.30;100763.56;4997395;28;10179;-65
2023/03/22 01:01:13;;;;;;;;;2.50;1.25;;;;;9.70;78.10;100765.63;4987787;28;10168;-65
2023/03/22 01:03:41;;;;;;;;;0.50;0.50;;;;;9.75;78.42;100754.31;5001433;28;10088;-66
2023/03/22 01:06:11;;;;;;;;;0.00;0.00;;;;;9.80;78.75;100754.56;4998261;28;10054;-66
2023/03/22 01:08:39;;;;;;;;;3.00;1.25;;;;;9.79;77.96;100756.41;5007053;28;10166;-66
2023/03/22 01:11:07;;;;;;;;;0.50;0.50;;;;;9.80;78.68;100752.72;5009691;28;11031;-65
2023/03/22 01:13:40;;;;;;;;;1.00;1.00;;;;;9.79;78.04;100742.97;5010481;28;10300;-66
2023/03/22 01:16:08;;;;;;;;;0.50;0.50;;;;;9.79;78.23;100742.97;4989580;28;10137;-66
2023/03/22 01:18:35;;;;;;;;;1.00;1.00;;;;;9.71;78.36;100731.53;4994146;28;10091;-65
2023/03/22 01:21:02;;;;;;;;;4.00;4.00;;;;;9.70;78.54;100732.56;4998350;28;10377;-69
2023/03/22 01:23:29;;;;;;;;;1.75;1.75;;;;;9.73;78.46;100721.44;4984378;28;10288;-66
2023/03/22 01:25:56;;;;;;;;;1.50;1.50;;;;;9.69;78.58;100723.66;4998345;28;10188;-65
2023/03/22 01:28:23;;;;;;;;;2.00;2.00;;;;;9.63;78.48;100716.34;5000514;28;10124;-65
2023/03/22 01:30:53;;;;;;;;;1.00;1.00;;;;;9.62;78.60;100714.69;4993629;28;10853;-66
2023/03/22 01:33:20;;;;;;;;;4.25;2.00;;;;;9.66;78.44;100715.97;4988671;28;10255;-65
2023/03/22 01:35:46;;;;;;;;;2.00;2.00;;;;;9.69;78.16;100712.91;5010016;28;10270;-65
2023/03/22 01:38:13;;;;;;;;;2.00;1.00;;;;;9.69;78.37;100710.22;5001564;28;11059;-65
2023/03/22 01:40:48;;;;;;;;;1.75;1.75;;;;;9.73;77.97;100700.75;5004993;28;10161;-65
2023/03/22 01:43:16;;;;;;;;;3.25;3.25;;;;;9.70;78.48;100693.06;4982418;28;10267;-65
2023/03/22 01:45:50;;;;;;;;;4.50;2.75;;;;;9.75;78.23;100689.78;4983513;28;10185;-66
2023/03/22 01:48:36;;;;;;;;;2.00;2.00;;;;;9.72;78.17;100680.25;5002881;28;10235;-65
2023/03/22 01:51:03;;;;;;;;;5.00;4.00;;;;;9.68;77.79;100683.53;5005827;28;10213;-65
2023/03/22 01:53:40;;;;;;;;;3.25;3.25;;;;;9.68;78.11;100676.28;5002672;28;10289;-65
2023/03/22 01:56:08;;;;;;;;;4.00;2.00;;;;;9.69;77.92;100677.16;4985265;28;11031;-66
2023/03/22 01:58:36;;;;;;;;;2.00;2.00;;;;;9.71;77.65;100675.06;5002076;28;10193;-66
2023/03/22 02:01:08;;;;;;;;;3.50;1.75;;;;;9.75;77.98;100671.81;4989122;28;10173;-65
2023/03/22 02:03:48;;;;;;;;;2.00;2.00;;;;;9.75;77.55;100658.38;5007150;28;10172;-65
2023/03/22 02:06:17;;;;;;;;;1.75;1.75;;;;;9.77;77.49;100658.19;5004281;28;11072;-66
2023/03/22 02:08:48;;;;;;;;;4.50;2.00;;;;;9.78;77.72;100654.47;4979598;28;10184;-65
2023/03/22 02:11:27;;;;;;;;;2.00;1.50;;;;;9.80;77.75;100649.72;4985629;28;10305;-66
2023/03/22 02:13:59;;;;;;;;;6.00;2.00;;;;;9.79;77.20;100651.59;5001371;28;10104;-65
2023/03/22 02:17:23;;;;;;;;;1.25;1.00;;;;;9.74;77.34;100632.53;4999217;28;10275;-66
2023/03/22 02:20:31;;;;;;;;;4.00;4.00;;;;;9.71;77.58;100629.38;4999758;28;10118;-65
2023/03/22 02:23:31;;;;;;;;;3.25;2.00;;;;;9.68;77.29;100627.91;4984559;28;10318;-66
2023/03/22 02:26:23;;;;;;;;;2.75;1.75;;;;;9.71;77.61;100621.31;5002376;28;10361;-65
2023/03/22 02:28:49;;;;;;;;;1.50;1.50;;;;;9.73;77.67;100621.97;4993366;28;10441;-65
2023/03/22 02:31:45;;;;;;;;;3.75;3.75;;;;;9.71;77.45;100618.63;5004507;28;10113;-66
2023/03/22 02:34:33;;;;;;;;;3.00;3.00;;;;;9.71;77.16;100618.63;4988525;28;10274;-66
2023/03/22 02:37:21;;;;;;;;;1.75;1.00;;;;;9.66;77.08;100611.97;4992554;28;10237;-66
2023/03/22 02:40:27;;;;;;;;;3.75;2.00;;;;;9.66;77.33;100611.97;4996206;28;10125;-65
2023/03/22 02:43:37;;;;;;;;;6.75;4.00;;;;;9.68;77.14;100605.56;5003702;28;10161;-65
2023/03/22 02:46:07;;;;;;;;;1.25;1.00;;;;;9.66;77.28;100598.53;5002421;28;10250;-65
2023/03/22 02:48:49;;;;;;;;;1.75;1.75;;;;;9.67;77.45;100596.69;5010617;28;10943;-65
2023/03/22 02:51:21;;;;;;;;;5.00;1.25;;;;;9.64;77.66;100586.31;5006758;28;10234;-66
2023/03/22 02:53:57;;;;;;;;;4.50;4.00;;;;;9.66;77.38;100595.84;5002947;28;10580;-65
2023/03/22 02:56:43;;;;;;;;;2.00;2.00;;;;;9.67;77.96;100588.63;5003679;28;10426;-65
2023/03/22 02:59:11;;;;;;;;;4.00;2.25;;;;;9.65;77.44;100593.38;4984562;28;10342;-65
2023/03/22 03:01:42;;;;;;;;;8.25;4.50;;;;;9.63;77.81;100588.19;4995473;28;10167;-65
2023/03/22 03:04:15;;;;;;;;;7.00;5.25;;;;;9.66;78.28;100592.34;5006335;28;10191;-65
2023/03/22 03:06:45;;;;;;;;;10.50;5.00;;;;;9.57;77.86;100588.13;5003419;28;10269;-65
2023/03/22 03:09:16;;;;;;;;;3.00;2.00;;;;;9.59;78.18;100586.91;4993750;28;10423;-64
2023/03/22 03:11:49;;;;;;;;;3.50;3.25;;;;;9.61;78.87;100581.34;5002688;28;10152;-65
2023/03/22 03:14:25;;;;;;;;;5.75;5.75;;;;;9.62;78.39;100581.16;4989076;28;11083;-66
2023/03/22 03:17:21;;;;;;;;;4.75;4.75;;;;;9.59;78.84;100576.16;5009863;28;10408;-64
2023/03/22 03:20:16;;;;;;;;;9.25;8.25;;;;;9.59;78.50;100575.31;4979921;28;10436;-67
2023/03/22 03:23:04;;;;;;;;;9.00;6.75;;;;;9.52;78.83;100572.59;4993502;28;10563;-64
2023/03/22 03:25:42;;;;;;;;;12.00;9.25;;;;;9.47;79.44;100572.34;5007799;28;10350;-65
2023/03/22 03:28:37;;;;;;;;;7.75;7.75;;;;;9.46;79.86;100572.53;4984260;28;10550;-65
2023/03/22 03:31:25;;;;;;;;;9.50;8.00;;;;;9.45;79.86;100565.50;4984854;28;10469;-64
2023/03/22 03:34:06;;;;;;;;;5.00;5.00;;;;;9.48;80.28;100563.28;5002310;28;10605;-65
2023/03/22 03:36:38;;;;;;;;;6.50;6.50;;;;;9.52;79.92;100558.31;4991392;28;11351;-64
2023/03/22 03:39:10;;;;;;;;;10.00;8.00;;;;;9.51;80.18;100557.47;5009320;28;10405;-65
2023/03/22 03:41:39;;;;;;;;;16.00;11.00;;;;;9.45;80.38;100560.13;5006924;28;11244;-64
2023/03/22 03:44:05;;;;;;;;;9.50;6.50;;;;;9.49;80.41;100558.72;4983412;28;10613;-65
2023/03/22 03:46:32;;;;;;;;;8.50;7.75;;;;;9.52;80.52;100553.78;5003110;28;10639;-66
2023/03/22 03:49:01;;;;;;;;;13.50;11.00;;;;;9.47;80.33;100556.22;5003954;28;10496;-67
2023/03/22 03:51:28;;;;;;;;;13.00;9.25;;;;;9.46;80.43;100556.41;5007305;28;10514;-67
2023/03/22 03:53:54;;;;;;;;;12.25;10.50;;;;;9.43;81.14;100554.09;5007179;28;10603;-65
2023/03/22 03:56:21;;;;;;;;;12.00;12.00;;;;;9.45;81.31;100558.28;4998485;28;10779;-64
2023/03/22 03:58:49;;;;;;;;;13.25;8.25;;;;;9.53;81.08;100554.63;5008308;28;11423;-65
2023/03/22 04:01:18;;;;;;;;;9.50;7.50;;;;;9.56;81.51;100555.06;5007056;28;10655;-66
2023/03/22 04:04:12;;;;;;;;;11.25;11.25;;;;;9.60;80.92;100559.03;5004925;28;10530;-65
2023/03/22 04:06:44;;;;;;;;;12.00;9.00;;;;;9.61;80.84;100558.00;4986556;28;10707;-66
2023/03/22 04:09:16;;;;;;;;;15.00;14.50;;;;;9.53;80.90;100557.31;5001718;28;10490;-65
2023/03/22 04:11:47;;;;;;;;;17.25;12.25;;;;;9.53;81.70;100552.75;4986619;28;10904;-66
2023/03/22 04:14:14;;;;;;;;;15.75;13.25;;;;;9.53;81.31;100552.75;5004860;28;10639;-66
2023/03/22 04:16:41;;;;;;;;;16.25;13.00;;;;;9.54;81.00;100556.28;4998328;28;11418;-66
2023/03/22 04:19:11;;;;;;;;;25.00;15.50;;;;;9.50;81.44;100550.47;5001304;28;10777;-67
2023/03/22 04:21:38;;;;;;;;;12.75;10.00;;;;;9.56;81.75;100543.47;5008973;28;10777;-64
2023/03/22 04:24:06;;;;;;;;;17.00;14.75;;;;;9.60;81.76;100542.91;4989707;28;10870;-66
2023/03/22 04:26:36;;;;;;;;;17.75;15.50;;;;;9.62;81.74;100548.06;4984565;28;10649;-66
2023/03/22 04:29:21;;;;;;;;;12.00;12.00;;;;;9.63;81.79;100538.97;5010409;28;10730;-65
2023/03/22 04:31:53;;;;;;;;;13.00;11.00;;;;;9.65;81.55;100542.31;4992909;28;11451;-64
2023/03/22 04:34:33;;;;;;;;;16.00;12.00;;;;;9.69;81.74;100535.53;4991756;28;10606;-66
2023/03/22 04:37:01;;;;;;;;;19.00;12.50;;;;;9.70;81.65;100528.28;5007858;28;10691;-65
2023/03/22 04:39:30;;;;;;;;;15.25;14.75;;;;;9.69;81.81;100529.31;4984817;28;10753;-65
2023/03/22 04:42:13;;;;;;;;;15.00;15.00;;;;;9.67;81.87;100524.13;4990369;28;10618;-65
2023/03/22 04:44:39;;;;;;;;;16.00;15.00;;;;;9.67;81.92;100524.13;4988560;28;10772;-66
2023/03/22 04:47:06;;;;;;;;;13.50;13.50;;;;;9.70;81.64;100521.03;4988238;28;10763;-66
2023/03/22 04:49:33;;;;;;;;;13.00;12.75;;;;;9.72;81.36;100518.97;5004596;28;10526;-66
2023/03/22 04:52:00;;;;;;;;;17.50;15.00;;;;;9.70;81.60;100521.03;4992654;28;10805;-65
2023/03/22 04:54:49;;;;;;;;;14.25;14.25;;;;;9.73;81.63;100511.78;4999149;28;10670;-66
2023/03/22 04:57:16;;;;;;;;;15.00;15.00;;;;;9.73;81.90;100512.59;4990650;28;10748;-66
2023/03/22 04:59:45;;;;;;;;;19.75;15.75;;;;;9.74;81.92;100503.50;4999880;28;10927;-66
2023/03/22 05:02:13;;;;;;;;;15.75;15.00;;;;;9.75;81.86;100501.63;4991773;28;10832;-65
2023/03/22 05:04:41;;;;;;;;;13.75;10.25;;;;;9.72;81.70;100500.16;4991081;28;10763;-66
2023/03/22 05:07:21;;;;;;;;;17.25;13.50;;;;;9.78;81.75;100499.38;4988477;28;11346;-65
2023/03/22 05:09:52;;;;;;;;;18.25;16.00;;;;;9.77;81.64;100496.91;4981023;28;10689;-66
2023/03/22 05:12:18;;;;;;;;;14.00;10.00;;;;;9.75;81.24;100505.16;4986765;28;10828;-64
2023/03/22 05:14:49;;;;;;;;;16.50;14.00;;;;;9.75;81.51;100502.47;4989796;28;10654;-65
2023/03/22 05:17:21;;;;;;;;;15.00;15.00;;;;;9.76;81.79;100496.06;5008236;28;11433;-66
2023/03/22 05:19:50;;;;;;;;;20.00;17.25;;;;;9.78;81.27;100490.50;4987870;28;10485;-66
2023/03/22 05:22:18;;;;;;;;;18.50;18.50;;;;;9.73;81.66;100490.28;4985628;28;10710;-66
2023/03/22 05:24:47;;;;;;;;;14.50;13.50;;;;;9.76;81.81;100490.69;4989695;28;10666;-66
2023/03/22 05:27:29;;;;;;;;;19.00;17.75;;;;;9.68;81.73;100493.53;4987963;28;11507;-66
2023/03/22 05:30:03;;;;;;;;;18.50;18.00;;;;;9.67;82.27;100494.56;4988998;28;10813;-66
2023/03/22 05:32:44;;;;;;;;;18.00;16.00;;;;;9.62;81.66;100489.78;4987968;28;10691;-66
2023/03/22 05:35:11;;;;;;;;;13.00;11.00;;;;;9.59;82.07;100481.28;4997532;28;10599;-66
2023/03/22 05:37:41;;;;;;;;;10.00;9.75;;;;;9.66;81.96;100476.78;4982984;28;10522;-66
2023/03/22 05:40:08;;;;;;;;;14.00;14.00;;;;;9.71;81.85;100474.31;4992208;28;10711;-66
2023/03/22 05:42:39;;;;;;;;;21.25;15.00;;;;;9.70;82.01;100467.28;4988867;28;10702;-65
2023/03/22 05:45:20;;;;;;;;;12.75;11.75;;;;;9.75;81.59;100466.69;4986859;28;10755;-65
2023/03/22 05:47:56;;;;;;;;;12.75;12.75;;;;;9.69;81.34;100481.78;4991444;28;10749;-64
2023/03/22 05:50:24;;;;;;;;;13.25;12.00;;;;;9.66;81.50;100466.84;5002069;28;10699;-64
2023/03/22 05:52:51;;;;;;;;;14.50;14.00;;;;;9.60;81.64;100464.13;4990647;28;10686;-64
2023/03/22 05:55:43;;;;;;;;;13.00;10.00;;;;;9.63;81.46;100461.88;4984152;28;10904;-64
2023/03/22 05:58:10;;;;;;;;;10.25;7.75;;;;;9.63;81.61;100464.56;4985963;28;10750;-65
2023/03/22 06:00:38;;;;;;;;;9.50;9.50;;;;;9.59;81.29;100462.47;5003861;28;10478;-64
2023/03/22 06:03:44;;;;;;;;;11.00;8.00;;;;;9.59;81.40;100457.09;5011545;28;10684;-65
2023/03/22 06:06:22;;;;;;;;;10.75;8.00;;;;;9.63;81.11;100459.19;5008810;28;10670;-64
2023/03/22 06:08:59;;;;;;;;;9.00;8.00;;;;;9.63;81.39;100461.03;4995343;28;10562;-65
2023/03/22 06:11:43;;;;;;;;;10.75;9.75;;;;;9.68;81.12;100463.13;5004072;28;10424;-67
2023/03/22 06:14:10;;;;;;;;;8.00;7.25;;;;;9.68;80.86;100469.34;5006977;28;10820;-66
2023/03/22 06:16:52;;;;;;;;;6.50;6.50;;;;;9.73;80.74;100468.78;4986915;28;10490;-67
2023/03/22 06:19:18;;;;;;;;;10.50;9.75;;;;;9.75;80.30;100475.59;5005608;28;10454;-67
2023/03/22 06:21:45;;;;;;;;;9.00;8.00;;;;;9.73;80.53;100474.16;5001582;28;10613;-66
2023/03/22 06:24:14;;;;;;;;;7.50;6.00;;;;;9.75;80.47;100478.28;4991784;28;10387;-67
2023/03/22 06:26:41;;;;;;;;;8.75;8.00;;;;;9.75;80.48;100470.22;4988172;28;10334;-66
2023/03/22 06:29:07;;;;;;;;;7.00;6.00;;;;;9.76;80.26;100463.81;5011727;28;10497;-65
2023/03/22 06:31:34;;;;;;;;;7.50;6.75;;;;;9.76;80.05;100468.34;5008428;28;10419;-67
2023/03/22 06:34:04;;;;;;;;;9.25;6.50;;;;;9.86;80.12;100468.84;4993555;28;11079;-66
2023/03/22 06:36:38;;;;;;;;;6.00;5.25;;;;;9.86;79.42;100471.53;4994115;28;10486;-66
2023/03/22 06:39:09;;;;;;;;;5.00;5.00;;;;;9.84;79.56;100476.25;5009789;28;10308;-65
2023/03/22 06:41:36;;;;;;;;;4.75;4.75;;;;;9.85;79.17;100457.25;4964220;28;10416;-65
2023/03/22 06:44:03;;;;;;;;;5.75;4.00;;;;;9.93;79.20;100463.50;5013013;28;10344;-67
2023/03/22 06:46:48;;;;;;;;;4.00;3.00;;;;;9.88;79.07;100456.00;5013212;28;10258;-67
2023/03/22 06:49:26;;;;;;;;;2.00;2.00;;;;;9.94;78.93;100454.41;4975757;28;10242;-67
2023/03/22 06:51:53;;;;;;;;;5.00;5.00;;;;;9.89;78.40;100474.66;4993399;28;10187;-67
2023/03/22 06:54:20;;;;;;;;;3.75;2.25;;;;;9.79;78.92;100463.41;5007152;28;10291;-69
2023/03/22 06:56:46;;;;;;;;;4.50;3.00;;;;;9.86;78.54;100458.09;5008548;28;10263;-68
2023/03/22 06:59:13;;;;;;;;;2.75;2.00;;;;;9.89;78.52;100455.84;4995432;28;10229;-67
2023/03/22 07:01:40;;;;;;;;;2.00;2.00;;;;;9.90;78.27;100470.09;5012202;28;10137;-68
2023/03/22 07:04:09;;;;;;;;;2.00;2.00;;;;;9.87;78.38;100465.94;5010334;28;10026;-68
2023/03/22 07:06:36;;;;;;;;;3.00;3.00;;;;;9.91;78.43;100459.13;5004518;28;10273;-68
2023/03/22 07:09:03;;;;;;;;;7.50;4.00;;;;;9.94;78.56;100468.66;5005563;28;10216;-66
2023/03/22 07:11:33;;;;;;;;;2.00;2.00;;;;;9.86;78.49;100466.16;5009550;28;10330;-68
2023/03/22 07:14:01;;;;;;;;;2.00;2.00;;;;;9.86;78.40;100466.97;4990929;28;10282;-68
2023/03/22 07:16:48;;;;;;;;;4.50;4.00;;;;;9.98;78.22;100456.50;5008813;28;10281;-68
2023/03/22 07:19:17;;;;;;;;;2.25;2.25;;;;;10.05;78.27;100451.97;5007702;28;10110;-68
2023/03/22 07:21:43;;;;;;;;;3.00;3.00;;;;;10.07;77.88;100443.69;4991934;28;10168;-67
2023/03/22 07:24:12;;;;;;;;;2.25;2.25;;;;;10.14;78.05;100452.63;5013296;28;10287;-69
2023/03/22 07:26:40;;;;;;;;;6.25;2.75;;;;;10.22;77.46;100446.25;4991343;28;9924;-68
2023/03/22 07:29:08;;;;;;;;;2.00;2.00;;;;;10.24;77.29;100449.56;5020593;28;10830;-66
2023/03/22 07:31:36;;;;;;;;;2.00;2.00;;;;;10.18;77.23;100447.69;5009323;28;10141;-65
2023/03/22 07:34:06;;;;;;;;;3.75;3.75;;;;;10.12;77.70;100452.81;4984295;28;10763;-68
2023/03/22 07:36:44;;;;;;;;;1.75;1.75;;;;;10.20;77.31;100457.19;4992463;28;10143;-66
2023/03/22 07:39:11;;;;;;;;;5.75;3.00;;;;;10.21;76.93;100450.81;4978525;28;9827;-66
2023/03/22 07:41:42;;;;;;;;;1.75;1.75;;;;;10.21;77.20;100433.81;4976655;28;10134;-68
2023/03/22 07:44:22;;;;;;;;;2.00;1.00;;;;;10.12;77.28;100443.91;5011321;28;9927;-68
2023/03/22 07:47:27;;;;;;;;;4.00;2.25;;;;;10.16;77.62;100442.47;4983412;28;10016;-68
2023/03/22 07:50:13;;;;;;;;;2.75;2.00;;;;;10.21;77.18;100440.03;4997221;28;9928;-70
2023/03/22 07:52:44;;;;;;;;;3.50;1.25;;;;;10.26;77.02;100455.59;4995319;28;9944;-68
2023/03/22 07:55:12;;;;;;;;;2.50;1.25;;;;;10.20;77.57;100453.66;4993804;28;9957;-68
2023/03/22 07:57:39;;;;;;;;;1.50;1.50;;;;;10.18;77.03;100451.19;5007902;28;10084;-68
2023/03/22 08:00:09;;;;;;;;;3.50;3.00;;;;;10.16;77.33;100469.38;4994732;28;10098;-68
2023/03/22 08:02:44;;;;;;;;;1.50;1.50;;;;;10.15;77.62;100457.78;4993180;28;10136;-66
2023/03/22 08:05:21;;;;;;;;;2.25;2.00;;;;;10.14;77.65;100455.31;5007728;28;9855;-69
2023/03/22 08:07:55;;;;;;;;;4.75;2.00;;;;;10.07;78.27;100455.28;4992991;28;10148;-68
2023/03/22 08:10:22;;;;;;;;;5.25;5.00;;;;;10.07;78.50;100457.97;5006745;28;10180;-68
2023/03/22 08:12:49;;;;;;;;;4.50;4.50;;;;;10.07;78.50;100455.28;4991687;28;10114;-67
2023/03/22 08:15:21;;;;;;;;;2.00;2.00;;;;;10.06;78.46;100450.13;5005987;28;10083;-68
2023/03/22 08:17:48;;;;;;;;;8.75;8.25;;;;;10.13;78.42;100459.03;5013989;28;10128;-68
2023/03/22 08:20:26;;;;;;;;;10.25;8.75;;;;;10.18;78.74;100447.69;5007485;28;10294;-67
2023/03/22 08:22:55;;;;;;;;;3.00;3.00;;;;;10.18;78.73;100455.75;5008872;28;11231;-65
2023/03/22 08:25:24;;;;;;;;;8.25;6.75;;;;;10.11;78.98;100455.72;5014216;28;10151;-68
2023/03/22 08:27:54;;;;;;;;;7.75;7.00;;;;;10.14;78.97;100444.56;5007425;28;10395;-67
2023/03/22 08:30:23;;;;;;;;;4.75;4.75;;;;;10.24;79.26;100454.94;4971709;28;10219;-69
2023/03/22 08:32:52;;;;;;;;;5.00;5.00;;;;;10.28;79.14;100458.91;5002886;28;10144;-68
2023/03/22 08:35:19;;;;;;;;;4.00;2.50;;;;;10.30;79.66;100454.16;5004110;28;10171;-67
2023/03/22 08:37:46;;;;;;;;;2.50;2.00;;;;;10.23;79.21;100453.28;4997349;28;10049;-67
2023/03/22 08:40:14;;;;;;;;;3.50;3.50;;;;;10.30;79.24;100446.94;5012329;28;10127;-68
2023/03/22 08:42:45;;;;;;;;;3.00;2.50;;;;;10.30;78.90;100460.38;4992504;28;9930;-69
2023/03/22 08:45:12;;;;;;;;;4.00;4.00;;;;;10.21;79.55;100461.56;4993508;28;9851;-69
2023/03/22 08:47:45;;;;;;;;;4.50;4.50;;;;;10.05;80.52;100451.16;5008246;28;10264;-68
2023/03/22 08:50:12;;;;;;;;;1.50;1.50;;;;;9.99;80.77;100458.13;4991172;28;10098;-67
2023/03/22 08:52:47;;;;;;;;;11.25;10.75;;;;;10.02;80.82;100463.13;4992674;28;9939;-66
2023/03/22 08:55:34;;;;;;;;;5.00;5.00;;;;;9.96;81.63;100461.22;5022122;28;10250;-66
2023/03/22 08:58:15;;;;;;;;;11.50;11.00;;;;;9.90;81.64;100445.91;5008274;28;10159;-68
2023/03/22 09:01:00;;;;;;;;;6.50;6.00;;;;;9.93;81.92;100450.88;5008950;28;10224;-68
2023/03/22 09:03:40;;;;;;;;;10.50;9.75;;;;;9.95;82.42;100445.31;5006500;28;10241;-68
2023/03/22 09:06:07;;;;;;;;;7.00;5.50;;;;;9.91;82.56;100447.56;5012577;28;10364;-67
2023/03/22 09:08:37;;;;;;;;;2.50;2.50;;;;;9.84;82.71;100434.09;5000632;28;10074;-65
2023/03/22 09:11:09;;;;;;;;;4.75;4.75;;;;;9.93;83.29;100444.69;5010395;28;9959;-68
2023/03/22 09:13:36;;;;;;;;;1.25;1.25;;;;;9.89;83.32;100439.69;5004265;28;10181;-68
2023/03/22 09:16:05;;;;;;;;;2.00;2.00;;;;;9.81;83.09;100444.41;5009526;28;10100;-65
2023/03/22 09:18:32;;;;;;;;;1.00;1.00;;;;;9.86;83.16;100440.09;5008299;28;10042;-68
2023/03/22 09:21:02;;;;;;;;;2.50;2.00;;;;;9.86;83.33;100442.78;5000134;28;10173;-67
2023/03/22 09:23:36;;;;;;;;;2.50;2.50;;;;;9.86;83.38;100453.53;4991627;28;10195;-67
2023/03/22 09:26:06;;;;;;;;;3.00;3.00;;;;;9.85;83.78;100459.94;5023490;28;10180;-67
2023/03/22 09:28:34;;;;;;;;;6.50;5.00;;;;;9.82;83.57;100457.66;5006607;28;10246;-67
2023/03/22 09:31:08;;;;;;;;;4.00;3.75;;;;;9.81;83.89;100452.47;4993263;28;10970;-66
2023/03/22 09:33:37;;;;;;;;;6.25;4.00;;;;;9.80;84.56;100426.59;5004977;28;10209;-67
2023/03/22 09:36:04;;;;;;;;;3.75;2.00;;;;;9.84;84.49;100439.47;5009603;28;10167;-67
2023/03/22 09:38:32;;;;;;;;;4.00;3.75;;;;;9.86;84.01;100440.09;4996153;28;10238;-66
2023/03/22 09:41:21;;;;;;;;;7.75;5.00;;;;;9.81;84.55;100447.94;5013294;28;10188;-66
2023/03/22 09:43:59;;;;;;;;;3.00;3.00;;;;;9.77;84.71;100443.97;5003673;28;10350;-68
2023/03/22 09:46:30;;;;;;;;;2.75;2.75;;;;;9.82;85.09;100444.22;5004561;28;10083;-66
2023/03/22 09:49:02;;;;;;;;;3.00;2.00;;;;;9.87;85.20;100447.13;5004256;28;10126;-67
2023/03/22 09:51:33;;;;;;;;;2.50;2.50;;;;;9.98;85.04;100442.22;5013902;28;10240;-68
2023/03/22 09:53:59;;;;;;;;;2.50;2.50;;;;;10.00;85.37;100437.44;5014291;28;10156;-67
2023/03/22 09:56:30;;;;;;;;;2.50;2.00;;;;;10.02;84.89;100447.00;5013252;28;10216;-66
2023/03/22 09:59:26;;;;;;;;;4.25;2.50;;;;;9.97;85.06;100446.78;5010490;28;10116;-68
2023/03/22 10:02:20;;;;;;;;;3.50;3.50;;;;;9.93;85.27;100447.38;5015317;28;10114;-68
2023/03/22 10:05:30;;;;;;;;;7.50;5.00;;;;;9.93;85.13;100442.00;5011002;28;10271;-66
2023/03/22 10:08:18;;;;;;;;;5.00;4.00;;;;;9.92;85.48;100443.81;4974716;28;10282;-67
2023/03/22 10:10:45;;;;;;;;;8.00;4.00;;;;;9.96;85.88;100430.81;4992063;28;10544;-67
2023/03/22 10:13:34;;;;;;;;;6.00;3.00;;;;;10.03;86.08;100454.03;4995061;28;10402;-68
2023/03/22 10:16:04;;;;;;;;;8.50;6.00;;;;;9.94;85.93;100444.47;4996346;28;10331;-67
2023/03/22 10:18:36;;;;;;;;;5.00;4.00;;;;;9.99;86.11;100451.94;5009726;28;10293;-67
2023/03/22 10:21:09;;;;;;;;;8.00;6.50;;;;;9.94;86.10;100444.47;5011791;28;10406;-67
2023/03/22 10:24:14;;;;;;;;;4.50;4.25;;;;;10.02;85.83;100448.84;5012335;28;10250;-67
2023/03/22 10:26:45;;;;;;;;;6.50;5.00;;;;;9.95;86.00;100458.75;4995555;28;10289;-68
2023/03/22 10:29:36;;;;;;;;;6.00;5.50;;;;;9.94;85.84;100451.72;5013511;28;10262;-67
2023/03/22 10:32:09;;;;;;;;;6.50;5.75;;;;;9.99;85.94;100446.56;5008860;28;10537;-67
2023/03/22 10:34:36;;;;;;;;;4.00;3.25;;;;;9.94;86.12;100441.78;5012426;28;10312;-67
2023/03/22 10:37:06;;;;;;;;;6.00;6.00;;;;;9.93;86.17;100442.00;5013270;28;10437;-67
2023/03/22 10:39:36;;;;;;;;;4.50;4.50;;;;;10.06;86.25;100433.97;4995886;28;10411;-68
2023/03/22 10:42:12;;;;;;;;;4.50;4.00;;;;;10.06;86.28;100425.91;5013160;28;10449;-68
2023/03/22 10:44:53;;;;;;;;;6.00;4.50;;;;;10.07;86.37;100423.00;5012632;28;10454;-68
2023/03/22 10:47:30;;;;;;;;;4.50;4.25;;;;;10.04;85.91;100431.47;5012844;28;10179;-66
2023/03/22 10:50:02;;;;;;;;;5.50;3.00;;;;;10.11;86.49;100416.19;4995568;28;10273;-68
2023/03/22 10:52:28;;;;;;;;;6.50;6.50;;;;;10.21;85.96;100413.16;5012509;28;10189;-68
2023/03/22 10:54:56;;;;;;;;;3.00;2.00;;;;;10.20;86.22;100426.78;5012651;28;10224;-68
2023/03/22 10:57:29;;;;;;;;;3.50;3.50;;;;;10.26;86.00;100424.16;4995168;28;10259;-68
2023/03/22 10:59:56;;;;;;;;;5.00;3.00;;;;;10.25;85.53;100430.56;5013103;28;10266;-68
2023/03/22 11:02:28;;;;;;;;;2.50;2.50;;;;;10.28;86.00;100424.75;5012897;28;10126;-68
2023/03/22 11:05:00;;;;;;;;;2.25;2.25;;;;;10.29;85.44;100436.34;4993757;28;10156;-68
2023/03/22 11:07:41;;;;;;;;;4.00;4.00;;;;;10.30;85.97;100421.88;5012783;28;10368;-68
2023/03/22 11:10:08;;;;;;;;;3.00;3.00;;;;;10.33;85.39;100408.00;5011358;28;10187;-68
2023/03/22 11:12:37;;;;;;;;;3.50;3.50;;;;;10.40;85.19;100417.75;5012451;28;10080;-67
2023/03/22 11:15:17;;;;;;;;;3.50;3.50;;;;;10.37;85.43;100420.03;4993558;28;10123;-68
2023/03/22 11:17:44;;;;;;;;;5.00;3.00;;;;;10.37;85.56;100428.94;5012326;28;10111;-68
2023/03/22 11:20:15;;;;;;;;;6.00;6.00;;;;;10.34;85.49;100439.28;5011477;28;10248;-67
2023/03/22 11:22:44;;;;;;;;;3.50;3.50;;;;;10.38;85.04;100443.22;5012223;28;10271;-68
2023/03/22 11:25:25;;;;;;;;;3.00;3.00;;;;;10.31;85.33;100437.00;5012370;28;10039;-66
2023/03/22 11:28:03;;;;;;;;;5.00;5.00;;;;;10.36;85.21;100458.72;4993861;28;10115;-68
2023/03/22 11:30:31;;;;;;;;;5.25;4.00;;;;;10.37;85.06;100461.22;5012313;28;10190;-68
2023/03/22 11:32:59;;;;;;;;;4.50;3.00;;;;;10.32;84.84;100469.06;5011998;28;10322;-67
2023/03/22 11:35:28;;;;;;;;;7.25;5.00;;;;;10.28;85.04;100462.41;5011879;28;10249;-67
2023/03/22 11:37:55;;;;;;;;;9.00;7.25;;;;;10.26;85.10;100475.25;5011476;28;10215;-68
2023/03/22 11:40:28;;;;;;;;;4.00;3.50;;;;;10.29;85.02;100471.31;4994161;28;10249;-68
2023/03/22 11:43:06;;;;;;;;;4.50;4.50;;;;;10.26;84.96;100475.25;5011705;28;10184;-68
2023/03/22 11:45:36;;;;;;;;;7.00;5.00;;;;;10.25;84.63;100467.38;5011718;28;10297;-68
2023/03/22 11:48:13;;;;;;;;;5.00;5.00;;;;;10.32;84.71;100476.31;5011674;28;10288;-68
2023/03/22 11:50:42;;;;;;;;;7.75;4.50;;;;;10.32;84.52;100471.75;5012032;28;10193;-68
2023/03/22 11:53:15;;;;;;;;;5.00;3.25;;;;;10.34;84.62;100458.94;5011678;28;10253;-67
2023/03/22 11:55:42;;;;;;;;;5.50;4.75;;;;;10.37;84.62;100460.38;5011511;28;10118;-69
2023/03/22 11:58:22;;;;;;;;;4.00;4.00;;;;;10.39;84.30;100467.22;5010869;28;11048;-68